createdAt,value
2019-05-11T00:02:15.211Z,91.40
2019-05-11T00:04:44.501Z,91.50
2019-05-11T00:07:14.112Z,91.50
2019-05-11T00:09:57.355Z,91.70
2019-05-11T00:12:19.915Z,92.00
2019-05-11T00:14:49.280Z,92.10
2019-05-11T00:17:18.827Z,92.70
2019-05-11T00:19:48.242Z,92.60
2019-05-11T00:22:17.740Z,92.80
2019-05-11T00:24:47.118Z,93.00
2019-05-11T00:27:17.093Z,93.10
2019-05-11T00:29:46.492Z,93.00
2019-05-11T00:32:15.936Z,93.00
2019-05-11T00:34:45.367Z,93.00
2019-05-11T00:37:14.848Z,93.20
2019-05-11T00:39:44.330Z,93.30
2019-05-11T00:42:13.655Z,93.30
2019-05-11T00:44:46.753Z,93.30
2019-05-11T00:47:14.306Z,93.30
2019-05-11T00:49:43.642Z,93.50
2019-05-11T00:52:13.109Z,93.70
2019-05-11T00:54:42.446Z,93.80
2019-05-11T00:57:12.156Z,93.90
2019-05-11T00:59:41.523Z,94.10
2019-05-11T01:02:11.522Z,94.20
2019-05-11T01:04:41.023Z,94.30
2019-05-11T01:07:12.939Z,94.50
2019-05-11T01:09:43.274Z,94.70
2019-05-11T01:12:12.783Z,94.90
2019-05-11T01:14:42.516Z,94.90
2019-05-11T01:17:11.919Z,95.10
2019-05-11T01:19:42.408Z,95.20
2019-05-11T01:22:11.732Z,95.60
2019-05-11T01:24:42.275Z,95.70
2019-05-11T01:27:12.722Z,95.90
2019-05-11T01:29:44.052Z,95.80
2019-05-11T01:32:13.435Z,95.90
2019-05-11T01:34:43.440Z,96.00
2019-05-11T01:37:15.744Z,96.10
2019-05-11T01:39:45.072Z,96.10
2019-05-11T01:42:14.650Z,96.50
2019-05-11T01:44:44.756Z,96.00
2019-05-11T01:47:14.302Z,95.80
2019-05-11T01:49:43.807Z,95.70
2019-05-11T01:52:16.179Z,95.40
2019-05-11T01:54:45.772Z,95.40
2019-05-11T01:57:16.986Z,95.70
2019-05-11T01:59:46.316Z,95.50
2019-05-11T02:02:17.304Z,95.50
2019-05-11T02:04:48.146Z,95.50
2019-05-11T02:07:17.650Z,95.10
2019-05-11T02:09:47.164Z,94.90
2019-05-11T02:12:16.527Z,94.80
2019-05-11T02:14:48.436Z,94.80
2019-05-11T02:17:17.937Z,94.50
2019-05-11T02:19:47.244Z,94.60
2019-05-11T02:22:17.519Z,94.40
2019-05-11T02:24:47.303Z,94.40
2019-05-11T02:27:19.469Z,94.40
2019-05-11T02:29:48.930Z,94.50
2019-05-11T02:32:18.260Z,94.50
2019-05-11T02:34:47.826Z,94.50
2019-05-11T02:37:17.171Z,94.40
2019-05-11T02:39:46.592Z,94.40
2019-05-11T02:42:16.360Z,94.30
2019-05-11T02:44:45.714Z,94.50
2019-05-11T02:47:16.795Z,94.30
2019-05-11T02:49:46.295Z,94.50
2019-05-11T02:52:16.224Z,94.80
2019-05-11T02:54:46.952Z,95.00
2019-05-11T02:57:17.724Z,95.10
2019-05-11T02:59:49.248Z,95.20
2019-05-11T03:02:18.651Z,95.20
2019-05-11T03:04:49.431Z,94.90
2019-05-11T03:07:18.956Z,95.10
2019-05-11T03:09:48.253Z,95.10
2019-05-11T03:12:18.209Z,94.90
2019-05-11T03:14:49.515Z,94.80
2019-05-11T03:17:23.773Z,94.60
2019-05-11T03:19:53.163Z,94.80
2019-05-11T03:22:22.651Z,94.80
2019-05-11T03:24:51.948Z,95.00
2019-05-11T03:27:21.472Z,95.10
2019-05-11T03:29:51.058Z,95.10
2019-05-11T03:32:20.420Z,95.10
2019-05-11T03:34:50.100Z,95.10
2019-05-11T03:37:20.165Z,95.00
2019-05-11T03:39:49.670Z,95.00
2019-05-11T03:42:20.250Z,94.90
2019-05-11T03:44:50.696Z,94.80
2019-05-11T03:47:20.164Z,94.80
2019-05-11T03:49:49.536Z,94.70
2019-05-11T03:52:21.631Z,94.40
2019-05-11T03:54:51.727Z,94.30
2019-05-11T03:57:21.492Z,94.40
2019-05-11T03:59:51.083Z,94.40
2019-05-11T04:02:20.550Z,94.50
2019-05-11T04:04:50.397Z,94.50
2019-05-11T04:07:20.540Z,94.30
2019-05-11T04:09:50.688Z,94.30
2019-05-11T04:12:33.986Z,94.20
2019-05-11T04:14:52.150Z,94.10
2019-05-11T04:17:23.336Z,94.00
2019-05-11T04:19:54.134Z,93.90
2019-05-11T04:22:24.685Z,93.50
2019-05-11T04:24:54.046Z,93.20
2019-05-11T04:27:23.584Z,92.90
2019-05-11T04:29:52.837Z,92.50
2019-05-11T04:32:22.637Z,92.40
2019-05-11T04:34:52.950Z,92.20
2019-05-11T04:37:22.597Z,91.70
2019-05-11T04:39:54.418Z,91.60
2019-05-11T04:42:23.953Z,91.20
2019-05-11T04:44:56.064Z,91.50
2019-05-11T04:47:25.491Z,91.40
2019-05-11T04:49:55.386Z,91.50
2019-05-11T04:52:24.734Z,91.20
2019-05-11T04:54:54.183Z,91.80
2019-05-11T04:57:23.642Z,91.90
2019-05-11T04:59:53.114Z,91.90
2019-05-11T05:02:22.539Z,92.10
2019-05-11T05:04:52.482Z,91.70
2019-05-11T05:07:22.061Z,91.60
2019-05-11T05:09:51.416Z,91.80
2019-05-11T05:12:20.798Z,91.70
2019-05-11T05:14:50.106Z,91.70
2019-05-11T05:17:19.705Z,91.70
2019-05-11T05:19:49.507Z,91.80
2019-05-11T05:22:19.016Z,91.80
2019-05-11T05:24:48.997Z,91.90
2019-05-11T05:27:18.525Z,92.10
2019-05-11T05:29:47.786Z,92.50
2019-05-11T05:32:17.298Z,92.60
2019-05-11T05:34:49.073Z,92.00
2019-05-11T05:37:21.874Z,92.60
2019-05-11T05:39:51.213Z,92.70
2019-05-11T05:42:20.744Z,92.70
2019-05-11T05:44:50.091Z,92.40
2019-05-11T05:47:19.650Z,92.40
2019-05-11T05:49:49.226Z,92.30
2019-05-11T05:52:19.090Z,92.20
2019-05-11T05:54:48.511Z,92.40
2019-05-11T05:57:18.949Z,92.30
2019-05-11T05:59:48.490Z,92.00
2019-05-11T06:02:17.791Z,91.70
2019-05-11T06:04:47.675Z,91.70
2019-05-11T06:07:17.177Z,91.40
2019-05-11T06:09:46.914Z,91.00
2019-05-11T06:12:20.446Z,90.70
2019-05-11T06:14:52.834Z,90.00
2019-05-11T06:17:22.310Z,90.00
2019-05-11T06:19:51.732Z,88.50
2019-05-11T06:22:22.693Z,88.10
2019-05-11T06:24:52.082Z,87.80
2019-05-11T06:27:21.556Z,88.00
2019-05-11T06:29:54.684Z,87.20
2019-05-11T06:32:24.626Z,86.70
2019-05-11T06:34:54.008Z,84.40
2019-05-11T06:37:24.638Z,81.50
2019-05-11T06:39:54.911Z,78.40
2019-05-11T06:42:24.730Z,73.70
2019-05-11T06:44:54.383Z,61.80
2019-05-11T06:47:23.879Z,53.00
2019-05-11T06:49:53.410Z,47.10
2019-05-11T06:52:24.423Z,44.20
2019-05-11T06:54:53.989Z,47.50
2019-05-11T06:57:23.615Z,47.80
2019-05-11T06:59:58.503Z,48.20
2019-05-11T07:02:30.126Z,48.60
2019-05-11T07:05:00.605Z,46.40
2019-05-11T07:07:30.055Z,46.10
2019-05-11T07:09:59.832Z,43.30
2019-05-11T07:12:29.195Z,39.60
2019-05-11T07:14:59.131Z,35.40
2019-05-11T07:17:30.864Z,35.70
2019-05-11T07:19:59.752Z,39.50
2019-05-11T07:22:30.379Z,42.70
2019-05-11T07:25:00.610Z,45.80
2019-05-11T07:27:30.898Z,47.30
2019-05-11T07:30:00.584Z,50.20
2019-05-11T07:32:30.659Z,50.40
2019-05-11T07:35:02.892Z,46.20
2019-05-11T07:37:34.522Z,44.70
2019-05-11T07:40:04.016Z,43.30
2019-05-11T07:42:33.638Z,42.70
2019-05-11T07:45:03.069Z,43.10
2019-05-11T07:47:32.614Z,43.50
2019-05-11T07:50:08.077Z,42.40
2019-05-11T07:52:37.824Z,42.30
2019-05-11T07:55:19.262Z,42.80
2019-05-11T07:57:51.566Z,44.40
2019-05-11T08:00:22.374Z,46.90
2019-05-11T08:02:53.727Z,49.20
2019-05-11T08:05:31.444Z,51.40
2019-05-11T08:08:02.509Z,51.00
2019-05-11T08:10:38.838Z,49.70
2019-05-11T08:13:09.107Z,49.00
2019-05-11T08:15:38.547Z,48.40
2019-05-11T08:18:10.983Z,48.10
2019-05-11T08:20:41.296Z,48.60
2019-05-11T08:23:13.297Z,48.70
2019-05-11T08:25:42.634Z,48.10
2019-05-11T08:28:12.270Z,47.20
2019-05-11T08:30:41.769Z,47.70
2019-05-11T08:33:12.377Z,47.30
2019-05-11T08:35:42.846Z,46.10
2019-05-11T08:38:12.327Z,45.20
2019-05-11T08:40:41.672Z,43.50
2019-05-11T08:43:13.097Z,43.30
2019-05-11T08:45:42.470Z,43.00
2019-05-11T08:48:12.002Z,43.60
2019-05-11T08:50:41.339Z,42.90
2019-05-11T08:53:10.844Z,42.80
2019-05-11T08:55:40.282Z,41.60
2019-05-11T08:58:09.599Z,41.50
2019-05-11T09:00:39.147Z,41.30
2019-05-11T09:03:08.673Z,41.30
2019-05-11T09:05:40.421Z,43.20
2019-05-11T09:08:09.914Z,44.70
2019-05-11T09:10:40.338Z,44.30
2019-05-11T09:13:09.887Z,44.10
2019-05-11T09:15:40.777Z,43.40
2019-05-11T09:18:10.503Z,42.40
2019-05-11T09:20:40.143Z,41.60
2019-05-11T09:23:09.544Z,42.50
2019-05-11T09:25:38.940Z,43.00
2019-05-11T09:28:08.685Z,43.70
2019-05-11T09:30:38.555Z,41.70
2019-05-11T09:33:08.773Z,42.10
2019-05-11T09:35:49.662Z,42.60
2019-05-11T09:38:09.539Z,41.40
2019-05-11T09:40:39.068Z,41.40
2019-05-11T09:43:10.025Z,40.90
2019-05-11T09:45:48.116Z,41.60
2019-05-11T09:48:12.726Z,41.90
2019-05-11T09:50:42.090Z,41.50
2019-05-11T09:53:13.545Z,40.40
2019-05-11T09:55:43.155Z,40.80
2019-05-11T09:58:12.788Z,40.80
2019-05-11T10:00:42.355Z,43.20
2019-05-11T10:03:11.982Z,43.10
2019-05-11T10:05:42.742Z,43.50
2019-05-11T10:08:12.467Z,42.80
2019-05-11T10:10:41.744Z,43.00
2019-05-11T10:13:13.941Z,43.00
2019-05-11T10:15:43.256Z,44.20
2019-05-11T10:18:18.738Z,44.50
2019-05-11T10:20:48.253Z,44.70
2019-05-11T10:23:18.573Z,44.80
2019-05-11T10:25:48.221Z,44.00
2019-05-11T10:28:18.015Z,42.50
2019-05-11T10:30:48.759Z,43.20
2019-05-11T10:33:18.962Z,42.50
2019-05-11T10:35:49.253Z,43.20
2019-05-11T10:38:18.810Z,43.70
2019-05-11T10:40:48.212Z,44.80
2019-05-11T10:43:18.382Z,46.40
2019-05-11T10:45:48.441Z,47.50
2019-05-11T10:48:22.458Z,48.20
2019-05-11T10:50:54.857Z,50.40
2019-05-11T10:53:27.969Z,50.00
2019-05-11T10:55:58.108Z,50.50
2019-05-11T10:58:28.533Z,49.30
2019-05-11T11:00:58.409Z,49.10
2019-05-11T11:03:28.381Z,49.80
2019-05-11T11:05:58.198Z,49.90
2019-05-11T11:08:27.995Z,50.50
2019-05-11T11:10:58.577Z,52.80
2019-05-11T11:13:28.444Z,55.50
2019-05-11T11:16:08.383Z,57.40
2019-05-11T11:18:43.597Z,59.00
2019-05-11T11:21:13.623Z,60.50
2019-05-11T11:23:43.157Z,61.50
2019-05-11T11:26:12.493Z,61.80
2019-05-11T11:28:42.322Z,63.10
2019-05-11T11:31:12.036Z,62.10
2019-05-11T11:33:41.531Z,61.50
2019-05-11T11:36:10.872Z,61.40
2019-05-11T11:38:40.371Z,60.40
2019-05-11T11:41:09.877Z,59.60
2019-05-11T11:43:40.638Z,57.90
2019-05-11T11:46:11.880Z,56.60
2019-05-11T11:48:50.506Z,55.50
2019-05-11T11:51:30.029Z,53.60
2019-05-11T11:54:00.617Z,52.00
2019-05-11T11:56:31.723Z,51.00
2019-05-11T11:59:01.403Z,51.10
2019-05-11T12:01:33.810Z,49.20
2019-05-11T12:04:03.207Z,48.30
2019-05-11T12:06:32.883Z,47.20
2019-05-11T12:09:02.219Z,47.90
2019-05-11T12:11:31.779Z,47.50
2019-05-11T12:14:01.770Z,47.70
2019-05-11T12:16:31.206Z,48.60
2019-05-11T12:19:05.225Z,49.20
2019-05-11T12:21:35.272Z,48.20
2019-05-11T12:24:05.256Z,48.20
2019-05-11T12:26:34.825Z,48.70
2019-05-11T12:29:04.902Z,48.80
2019-05-11T12:31:34.688Z,49.80
2019-05-11T12:34:08.533Z,49.60
2019-05-11T12:36:41.387Z,49.20
2019-05-11T12:39:10.935Z,49.50
2019-05-11T12:41:43.570Z,50.40
2019-05-11T12:44:33.647Z,50.20
2019-05-11T12:47:03.012Z,51.20
2019-05-11T12:49:34.600Z,50.40
2019-05-11T12:52:03.930Z,51.60
2019-05-11T12:54:35.818Z,53.80
2019-05-11T12:57:07.890Z,53.90
2019-05-11T12:59:40.046Z,54.70
2019-05-11T13:02:09.644Z,53.30
2019-05-11T13:04:40.037Z,52.80
2019-05-11T13:07:11.966Z,52.60
2019-05-11T13:09:41.863Z,53.50
2019-05-11T13:12:11.318Z,54.50
2019-05-11T13:14:41.253Z,54.30
2019-05-11T13:17:10.706Z,52.80
2019-05-11T13:19:40.208Z,52.40
2019-05-11T13:22:09.552Z,52.10
2019-05-11T13:24:39.033Z,53.40
2019-05-11T13:27:09.870Z,52.10
2019-05-11T13:29:39.396Z,53.80
2019-05-11T13:32:09.207Z,53.70
2019-05-11T13:34:38.854Z,54.40
2019-05-11T13:37:08.318Z,54.80
2019-05-11T13:39:37.975Z,55.50
2019-05-11T13:42:08.227Z,55.80
2019-05-11T13:44:39.149Z,56.40
2019-05-11T13:47:08.693Z,55.80
2019-05-11T13:49:38.122Z,56.20
2019-05-11T13:52:09.777Z,56.30
2019-05-11T13:54:39.631Z,53.60
2019-05-11T13:57:09.086Z,53.00
2019-05-11T13:59:38.588Z,52.90
2019-05-11T14:02:10.903Z,52.70
2019-05-11T14:04:40.740Z,53.10
2019-05-11T14:07:10.186Z,54.00
2019-05-11T14:09:39.834Z,53.20
2019-05-11T14:12:11.521Z,52.80
2019-05-11T14:14:41.035Z,52.30
2019-05-11T14:17:11.689Z,53.20
2019-05-11T14:19:45.202Z,52.80
2019-05-11T14:22:24.121Z,52.30
2019-05-11T14:24:54.761Z,51.20
2019-05-11T14:27:24.674Z,52.20
2019-05-11T14:29:58.023Z,53.10
2019-05-11T14:32:31.562Z,53.80
2019-05-11T14:35:09.798Z,54.30
2019-05-11T14:37:48.871Z,53.80
2019-05-11T14:40:18.421Z,55.90
2019-05-11T14:42:51.761Z,54.70
2019-05-11T14:45:21.853Z,53.90
2019-05-11T14:47:51.304Z,53.30
2019-05-11T14:50:20.566Z,52.90
2019-05-11T14:52:50.353Z,53.90
2019-05-11T14:55:21.739Z,52.70
2019-05-11T14:57:52.883Z,53.00
2019-05-11T15:00:22.277Z,54.40
2019-05-11T15:02:52.624Z,53.00
2019-05-11T15:05:22.869Z,52.80
2019-05-11T15:07:53.178Z,54.50
2019-05-11T15:10:28.029Z,54.70
2019-05-11T15:12:59.243Z,56.30
2019-05-11T15:15:33.788Z,55.70
2019-05-11T15:18:08.566Z,54.60
2019-05-11T15:20:38.860Z,55.30
2019-05-11T15:23:08.988Z,56.80
2019-05-11T15:25:38.786Z,56.10
2019-05-11T15:28:08.882Z,56.60
2019-05-11T15:30:40.063Z,57.70
2019-05-11T15:33:11.236Z,55.40
2019-05-11T15:35:40.612Z,53.70
2019-05-11T15:38:10.026Z,54.50
2019-05-11T15:40:39.568Z,55.70
2019-05-11T15:43:09.009Z,55.80
2019-05-11T15:45:41.500Z,57.80
2019-05-11T15:48:11.257Z,58.90
2019-05-11T15:50:40.699Z,60.50
2019-05-11T15:53:17.856Z,62.00
2019-05-11T15:55:48.891Z,64.10
2019-05-11T15:58:35.320Z,64.50
2019-05-11T16:01:07.771Z,64.20
2019-05-11T16:03:39.065Z,61.30
2019-05-11T16:06:14.555Z,61.90
2019-05-11T16:08:51.371Z,61.90
2019-05-11T16:11:24.047Z,62.60
2019-05-11T16:14:03.842Z,62.70
2019-05-11T16:16:39.059Z,62.90
2019-05-11T16:19:14.377Z,63.30
2019-05-11T16:21:42.131Z,65.10
2019-05-11T16:24:13.254Z,66.90
2019-05-11T16:26:42.660Z,66.50
2019-05-11T16:29:13.515Z,67.20
2019-05-11T16:31:48.278Z,65.90
2019-05-11T16:34:21.287Z,65.60
2019-05-11T16:36:51.106Z,65.70
2019-05-11T16:39:21.072Z,61.10
2019-05-11T16:41:52.487Z,60.30
2019-05-11T16:44:25.994Z,60.00
2019-05-11T16:46:58.654Z,59.10
2019-05-11T16:49:34.640Z,58.60
2019-05-11T16:52:07.851Z,59.50
2019-05-11T16:54:41.587Z,59.30
2019-05-11T16:57:11.255Z,59.30
2019-05-11T16:59:48.303Z,59.90
2019-05-11T17:02:57.691Z,60.80
2019-05-11T17:05:55.722Z,62.10
2019-05-11T17:08:27.666Z,62.70
2019-05-11T17:11:03.552Z,63.40
2019-05-11T17:13:37.946Z,64.20
2019-05-11T17:16:08.701Z,65.00
2019-05-11T17:18:39.481Z,65.10
2019-05-11T17:21:09.534Z,65.90
2019-05-11T17:23:39.530Z,66.90
2019-05-11T17:26:11.375Z,68.00
2019-05-11T17:28:41.166Z,68.30
2019-05-11T17:31:10.653Z,68.90
2019-05-11T17:33:40.529Z,69.40
2019-05-11T17:36:13.701Z,70.20
2019-05-11T17:38:43.075Z,70.60
2019-05-11T17:41:12.643Z,71.10
2019-05-11T17:43:41.964Z,71.20
2019-05-11T17:46:11.395Z,71.70
2019-05-11T17:48:40.785Z,72.60
2019-05-11T17:51:20.407Z,73.10
2019-05-11T17:53:41.402Z,73.90
2019-05-11T17:56:10.774Z,74.40
2019-05-11T17:58:40.476Z,75.10
2019-05-11T18:01:10.185Z,75.30
2019-05-11T18:03:43.677Z,75.50
2019-05-11T18:06:13.994Z,76.00
2019-05-11T18:08:48.572Z,75.40
2019-05-11T18:11:18.730Z,75.40
2019-05-11T18:13:48.418Z,77.30
2019-05-11T18:16:18.733Z,80.60
2019-05-11T18:18:54.942Z,84.90
2019-05-11T18:21:28.119Z,87.70
2019-05-11T18:24:01.112Z,91.80
2019-05-11T18:26:38.286Z,94.30
2019-05-11T18:29:07.756Z,95.70
2019-05-11T18:31:38.364Z,97.30
2019-05-11T18:34:13.750Z,98.30
2019-05-11T18:36:43.452Z,98.90
2019-05-11T18:39:14.091Z,99.30
2019-05-11T18:41:44.394Z,99.90
2019-05-11T18:44:18.591Z,99.90
2019-05-11T18:46:48.013Z,99.90
2019-05-11T18:49:19.534Z,99.90
2019-05-11T18:51:49.134Z,99.90
2019-05-11T18:54:19.131Z,99.90
2019-05-11T18:57:00.106Z,99.90
2019-05-11T18:59:37.359Z,99.90
2019-05-11T19:02:09.506Z,99.90
2019-05-11T19:04:39.254Z,99.90
2019-05-11T19:07:17.192Z,99.90
2019-05-11T19:09:48.499Z,99.90
2019-05-11T19:12:18.952Z,99.90
2019-05-11T19:14:48.457Z,99.90
2019-05-11T19:17:20.562Z,99.90
2019-05-11T19:19:50.521Z,99.90
2019-05-11T19:22:21.793Z,99.90
2019-05-11T19:24:51.438Z,99.90
2019-05-11T19:27:23.854Z,99.90
2019-05-11T19:29:54.503Z,99.90
2019-05-11T19:32:24.032Z,99.90
2019-05-11T19:34:53.335Z,99.90
2019-05-11T19:37:22.835Z,99.90
2019-05-11T19:39:52.181Z,99.90
2019-05-11T19:42:21.670Z,99.90
2019-05-11T19:44:51.494Z,99.90
2019-05-11T19:47:21.284Z,99.90
2019-05-11T19:49:51.697Z,99.90
2019-05-11T19:52:21.167Z,99.90
2019-05-11T19:54:50.621Z,99.90
2019-05-11T19:57:23.143Z,99.90
2019-05-11T20:00:08.476Z,99.90
2019-05-11T20:02:39.115Z,99.90
2019-05-11T20:05:09.496Z,99.90
2019-05-11T20:07:39.293Z,99.90
2019-05-11T20:10:08.954Z,99.90
2019-05-11T20:12:41.624Z,99.90
2019-05-11T20:15:10.171Z,99.90
2019-05-11T20:17:39.508Z,99.90
2019-05-11T20:20:09.132Z,99.90
2019-05-11T20:22:39.079Z,99.90
2019-05-11T20:25:14.318Z,99.90
2019-05-11T20:27:44.115Z,99.90
2019-05-11T20:30:13.724Z,99.90
2019-05-11T20:32:43.222Z,99.90
2019-05-11T20:35:12.747Z,99.90
2019-05-11T20:37:42.066Z,99.90
2019-05-11T20:40:12.442Z,99.90
2019-05-11T20:42:41.883Z,99.90
2019-05-11T20:45:11.586Z,99.90
2019-05-11T20:47:41.000Z,99.90
2019-05-11T20:50:12.710Z,99.90
2019-05-11T20:52:43.604Z,99.90
2019-05-11T20:55:13.312Z,99.90
2019-05-11T20:57:43.072Z,99.90
2019-05-11T21:00:14.024Z,99.90
2019-05-11T21:02:44.288Z,99.90
2019-05-11T21:05:13.694Z,99.90
2019-05-11T21:07:43.394Z,99.90
2019-05-11T21:10:13.268Z,99.90
2019-05-11T21:12:42.869Z,99.90
2019-05-11T21:15:12.547Z,99.90
2019-05-11T21:17:41.998Z,99.90
2019-05-11T21:20:12.078Z,99.90
2019-05-11T21:22:41.494Z,99.90
2019-05-11T21:25:10.924Z,99.90
2019-05-11T21:27:40.438Z,99.90
2019-05-11T21:30:10.660Z,99.90
2019-05-11T21:32:40.213Z,99.90
2019-05-11T21:35:10.722Z,99.90
2019-05-11T21:37:40.245Z,99.90
2019-05-11T21:40:13.494Z,99.90
2019-05-11T21:42:42.986Z,99.90
2019-05-11T21:45:12.432Z,99.90
2019-05-11T21:47:43.415Z,99.90
2019-05-11T21:50:12.818Z,99.90
2019-05-11T21:52:42.321Z,99.90
2019-05-11T21:55:12.034Z,99.90
2019-05-11T21:57:41.320Z,99.90
2019-05-11T22:00:13.881Z,99.90
2019-05-11T22:02:43.297Z,99.90
2019-05-11T22:05:13.017Z,99.90
2019-05-11T22:07:42.442Z,99.90
2019-05-11T22:10:12.160Z,99.90
2019-05-11T22:12:42.895Z,99.90
2019-05-11T22:15:13.928Z,99.90
2019-05-11T22:17:43.850Z,99.90
2019-05-11T22:20:13.834Z,99.90
2019-05-11T22:22:43.139Z,99.90
2019-05-11T22:25:12.618Z,99.90
2019-05-11T22:27:41.939Z,99.90
2019-05-11T22:30:11.959Z,99.90
2019-05-11T22:32:41.369Z,99.90
2019-05-11T22:35:11.020Z,99.90
2019-05-11T22:37:44.455Z,99.90
2019-05-11T22:40:13.848Z,99.90
2019-05-11T22:42:43.534Z,99.90
2019-05-11T22:45:13.229Z,99.90
2019-05-11T22:47:42.950Z,99.90
2019-05-11T22:50:12.470Z,99.90
2019-05-11T22:52:41.831Z,99.90
2019-05-11T22:55:12.283Z,99.90
2019-05-11T22:57:41.857Z,99.90
2019-05-11T23:00:12.013Z,99.90
2019-05-11T23:02:41.500Z,99.90
2019-05-11T23:05:11.997Z,99.90
2019-05-11T23:07:41.853Z,99.90
2019-05-11T23:10:12.210Z,99.90
2019-05-11T23:12:41.738Z,99.90
2019-05-11T23:15:13.079Z,99.90
2019-05-11T23:17:44.701Z,99.90
2019-05-11T23:20:14.256Z,99.90
2019-05-11T23:22:57.507Z,99.90
2019-05-11T23:25:20.839Z,99.90
2019-05-11T23:27:50.320Z,99.90
2019-05-11T23:30:20.298Z,99.90
2019-05-11T23:32:50.177Z,99.90
2019-05-11T23:35:19.637Z,99.90
2019-05-11T23:37:49.980Z,99.90
2019-05-11T23:40:21.635Z,99.90
2019-05-11T23:42:50.910Z,99.90
2019-05-11T23:45:20.370Z,99.90
2019-05-11T23:47:49.792Z,99.90
2019-05-11T23:50:19.547Z,99.90
2019-05-11T23:53:05.078Z,99.90
2019-05-11T23:55:20.919Z,99.90
2019-05-11T23:57:50.255Z,99.90
